sensor_id;sensor_type;location;lat;lon;timestamp;pressure;altitude;pressure_sealevel;temperature;humidity
23619;BME280;18207;32.078;34.818;2024-03-25T00:00:15;100775.44;;;24.10;34.78
23619;BME280;18207;32.078;34.818;2024-03-25T00:02:44;100766.53;;;24.08;34.98
23619;BME280;18207;32.078;34.818;2024-03-25T00:05:12;100768.09;;;24.05;34.90
23619;BME280;18207;32.078;34.818;2024-03-25T00:07:42;100771.97;;;24.01;34.47
23619;BME280;18207;32.078;34.818;2024-03-25T00:10:09;100773.03;;;23.96;34.45
23619;BME280;18207;32.078;34.818;2024-03-25T00:12:39;100765.69;;;23.92;34.46
23619;BME280;18207;32.078;34.818;2024-03-25T00:15:07;100769.69;;;23.91;34.58
23619;BME280;18207;32.078;34.818;2024-03-25T00:17:36;100768.50;;;23.92;34.44
23619;BME280;18207;32.078;34.818;2024-03-25T00:20:04;100765.34;;;23.93;34.84
23619;BME280;18207;32.078;34.818;2024-03-25T00:22:36;100750.81;;;23.91;35.01
23619;BME280;18207;32.078;34.818;2024-03-25T00:25:04;100756.81;;;23.90;34.82
23619;BME280;18207;32.078;34.818;2024-03-25T00:27:32;100749.94;;;23.87;34.68
23619;BME280;18207;32.078;34.818;2024-03-25T00:30:01;100745.81;;;23.85;34.41
23619;BME280;18207;32.078;34.818;2024-03-25T00:32:30;100744.66;;;23.86;34.75
23619;BME280;18207;32.078;34.818;2024-03-25T00:34:57;100746.66;;;23.85;34.63
23619;BME280;18207;32.078;34.818;2024-03-25T00:37:25;100735.44;;;23.85;34.54
23619;BME280;18207;32.078;34.818;2024-03-25T00:39:52;100736.69;;;23.88;34.52
23619;BME280;18207;32.078;34.818;2024-03-25T00:42:22;100737.16;;;23.90;34.79
23619;BME280;18207;32.078;34.818;2024-03-25T00:44:49;100740.44;;;23.92;34.79
23619;BME280;18207;32.078;34.818;2024-03-25T00:47:19;100737.63;;;23.92;34.52
23619;BME280;18207;32.078;34.818;2024-03-25T00:49:46;100736.31;;;23.89;35.03
23619;BME280;18207;32.078;34.818;2024-03-25T00:52:15;100740.34;;;23.88;34.83
23619;BME280;18207;32.078;34.818;2024-03-25T00:54:43;100742.69;;;23.86;34.91
23619;BME280;18207;32.078;34.818;2024-03-25T00:57:11;100745.50;;;23.86;34.96
23619;BME280;18207;32.078;34.818;2024-03-25T00:59:39;100742.69;;;23.86;34.89
23619;BME280;18207;32.078;34.818;2024-03-25T01:02:08;100744.31;;;23.87;34.90
23619;BME280;18207;32.078;34.818;2024-03-25T01:04:36;100742.31;;;23.88;34.73
23619;BME280;18207;32.078;34.818;2024-03-25T01:07:05;100746.66;;;23.85;34.92
23619;BME280;18207;32.078;34.818;2024-03-25T01:09:32;100737.41;;;23.85;34.78
23619;BME280;18207;32.078;34.818;2024-03-25T01:12:01;100746.28;;;23.87;34.80
23619;BME280;18207;32.078;34.818;2024-03-25T01:14:28;100748.75;;;23.88;35.31
23619;BME280;18207;32.078;34.818;2024-03-25T01:16:56;100747.94;;;23.88;35.10
23619;BME280;18207;32.078;34.818;2024-03-25T01:19:24;100739.50;;;23.88;35.08
23619;BME280;18207;32.078;34.818;2024-03-25T01:21:54;100739.97;;;23.90;35.38
23619;BME280;18207;32.078;34.818;2024-03-25T01:24:21;100743.56;;;23.90;35.46
23619;BME280;18207;32.078;34.818;2024-03-25T01:26:50;100743.56;;;23.90;34.82
23619;BME280;18207;32.078;34.818;2024-03-25T01:29:17;100737.97;;;23.90;35.24
23619;BME280;18207;32.078;34.818;2024-03-25T01:31:46;100732.34;;;23.90;35.04
23619;BME280;18207;32.078;34.818;2024-03-25T01:34:13;100739.50;;;23.88;35.24
23619;BME280;18207;32.078;34.818;2024-03-25T01:36:42;100734.97;;;23.83;35.31
23619;BME280;18207;32.078;34.818;2024-03-25T01:39:11;100743.66;;;23.78;35.18
23619;BME280;18207;32.078;34.818;2024-03-25T01:41:40;100737.44;;;23.73;35.29
23619;BME280;18207;32.078;34.818;2024-03-25T01:44:07;100740.50;;;23.68;35.35
23619;BME280;18207;32.078;34.818;2024-03-25T01:46:36;100741.56;;;23.63;35.20
23619;BME280;18207;32.078;34.818;2024-03-25T01:49:05;100748.25;;;23.59;35.16
23619;BME280;18207;32.078;34.818;2024-03-25T01:51:35;100742.06;;;23.53;35.48
23619;BME280;18207;32.078;34.818;2024-03-25T01:54:04;100745.56;;;23.50;35.82
23619;BME280;18207;32.078;34.818;2024-03-25T01:56:38;100747.94;;;23.48;35.79
23619;BME280;18207;32.078;34.818;2024-03-25T01:59:07;100756.34;;;23.48;36.03
23619;BME280;18207;32.078;34.818;2024-03-25T02:01:36;100766.75;;;23.48;35.77
23619;BME280;18207;32.078;34.818;2024-03-25T02:04:04;100769.44;;;23.44;35.83
23619;BME280;18207;32.078;34.818;2024-03-25T02:06:35;100765.69;;;23.40;36.00
23619;BME280;18207;32.078;34.818;2024-03-25T02:09:05;100773.22;;;23.36;35.73
23619;BME280;18207;32.078;34.818;2024-03-25T02:11:35;100783.16;;;23.34;36.22
23619;BME280;18207;32.078;34.818;2024-03-25T02:14:02;100773.91;;;23.33;35.77
23619;BME280;18207;32.078;34.818;2024-03-25T02:16:31;100789.09;;;23.32;36.06
23619;BME280;18207;32.078;34.818;2024-03-25T02:18:58;100785.81;;;23.30;36.02
23619;BME280;18207;32.078;34.818;2024-03-25T02:21:26;100792.16;;;23.28;35.76
23619;BME280;18207;32.078;34.818;2024-03-25T02:23:59;100797.28;;;23.26;35.81
23619;BME280;18207;32.078;34.818;2024-03-25T02:26:30;100803.97;;;23.21;36.31
23619;BME280;18207;32.078;34.818;2024-03-25T02:28:57;100799.41;;;23.17;36.07
23619;BME280;18207;32.078;34.818;2024-03-25T02:31:26;100810.84;;;23.12;36.04
23619;BME280;18207;32.078;34.818;2024-03-25T02:33:53;100812.72;;;23.08;36.34
23619;BME280;18207;32.078;34.818;2024-03-25T02:36:21;100815.44;;;23.04;36.17
23619;BME280;18207;32.078;34.818;2024-03-25T02:38:49;100825.66;;;23.00;36.61
23619;BME280;18207;32.078;34.818;2024-03-25T02:41:17;100823.91;;;22.96;36.17
23619;BME280;18207;32.078;34.818;2024-03-25T02:43:46;100829.03;;;22.94;36.48
23619;BME280;18207;32.078;34.818;2024-03-25T02:46:15;100826.47;;;22.89;36.74
23619;BME280;18207;32.078;34.818;2024-03-25T02:48:42;100826.38;;;22.85;36.55
23619;BME280;18207;32.078;34.818;2024-03-25T02:51:11;100826.22;;;22.82;36.62
23619;BME280;18207;32.078;34.818;2024-03-25T02:53:38;100826.09;;;22.78;36.58
23619;BME280;18207;32.078;34.818;2024-03-25T02:56:06;100840.81;;;22.75;36.77
23619;BME280;18207;32.078;34.818;2024-03-25T02:58:33;100841.50;;;22.72;36.83
23619;BME280;18207;32.078;34.818;2024-03-25T03:01:04;100840.25;;;22.70;36.86
23619;BME280;18207;32.078;34.818;2024-03-25T03:03:31;100848.50;;;22.66;36.57
23619;BME280;18207;32.078;34.818;2024-03-25T03:05:59;100843.59;;;22.63;36.77
23619;BME280;18207;32.078;34.818;2024-03-25T03:08:27;100860.75;;;22.62;36.73
23619;BME280;18207;32.078;34.818;2024-03-25T03:10:55;100866.69;;;22.60;36.35
23619;BME280;18207;32.078;34.818;2024-03-25T03:13:22;100866.22;;;22.58;36.95
23619;BME280;18207;32.078;34.818;2024-03-25T03:15:50;100872.97;;;22.57;36.86
23619;BME280;18207;32.078;34.818;2024-03-25T03:18:20;100869.72;;;22.55;36.94
23619;BME280;18207;32.078;34.818;2024-03-25T03:20:48;100879.63;;;22.53;37.10
23619;BME280;18207;32.078;34.818;2024-03-25T03:23:16;100882.78;;;22.51;36.53
23619;BME280;18207;32.078;34.818;2024-03-25T03:25:44;100891.53;;;22.50;37.02
23619;BME280;18207;32.078;34.818;2024-03-25T03:28:12;100899.09;;;22.49;37.15
23619;BME280;18207;32.078;34.818;2024-03-25T03:30:41;100898.63;;;22.47;36.77
23619;BME280;18207;32.078;34.818;2024-03-25T03:33:08;100897.00;;;22.46;36.78
23619;BME280;18207;32.078;34.818;2024-03-25T03:35:39;100901.78;;;22.46;37.23
23619;BME280;18207;32.078;34.818;2024-03-25T03:38:07;100897.34;;;22.45;36.68
23619;BME280;18207;32.078;34.818;2024-03-25T03:40:35;100901.31;;;22.44;37.09
23619;BME280;18207;32.078;34.818;2024-03-25T03:43:02;100912.84;;;22.42;36.78
23619;BME280;18207;32.078;34.818;2024-03-25T03:45:33;100913.22;;;22.41;36.83
23619;BME280;18207;32.078;34.818;2024-03-25T03:48:01;100907.44;;;22.38;37.36
23619;BME280;18207;32.078;34.818;2024-03-25T03:50:29;100917.03;;;22.37;37.40
23619;BME280;18207;32.078;34.818;2024-03-25T03:52:58;100914.56;;;22.35;37.42
23619;BME280;18207;32.078;34.818;2024-03-25T03:55:27;100917.72;;;22.34;37.52
23619;BME280;18207;32.078;34.818;2024-03-25T03:57:54;100918.38;;;22.31;36.93
23619;BME280;18207;32.078;34.818;2024-03-25T04:00:22;100918.72;;;22.29;37.25
23619;BME280;18207;32.078;34.818;2024-03-25T04:02:50;100927.13;;;22.29;37.49
23619;BME280;18207;32.078;34.818;2024-03-25T04:05:18;100929.44;;;22.27;37.01
23619;BME280;18207;32.078;34.818;2024-03-25T04:07:46;100941.00;;;22.26;37.07
23619;BME280;18207;32.078;34.818;2024-03-25T04:10:16;100940.50;;;22.24;36.96
23619;BME280;18207;32.078;34.818;2024-03-25T04:12:43;100945.63;;;22.22;37.12
23619;BME280;18207;32.078;34.818;2024-03-25T04:15:13;100950.75;;;22.20;37.67
23619;BME280;18207;32.078;34.818;2024-03-25T04:17:44;100956.34;;;22.20;37.01
23619;BME280;18207;32.078;34.818;2024-03-25T04:20:13;100955.53;;;22.19;37.66
23619;BME280;18207;32.078;34.818;2024-03-25T04:22:42;100956.34;;;22.20;37.40
23619;BME280;18207;32.078;34.818;2024-03-25T04:25:11;100963.94;;;22.19;37.32
23619;BME280;18207;32.078;34.818;2024-03-25T04:27:40;100970.00;;;22.21;37.12
23619;BME280;18207;32.078;34.818;2024-03-25T04:30:10;100966.38;;;22.21;37.40
23619;BME280;18207;32.078;34.818;2024-03-25T04:32:38;100976.41;;;22.22;37.55
23619;BME280;18207;32.078;34.818;2024-03-25T04:35:08;100973.75;;;22.25;37.42
23619;BME280;18207;32.078;34.818;2024-03-25T04:37:35;100990.22;;;22.27;37.69
23619;BME280;18207;32.078;34.818;2024-03-25T04:40:03;100983.44;;;22.28;37.61
23619;BME280;18207;32.078;34.818;2024-03-25T04:42:31;100995.81;;;22.27;37.26
23619;BME280;18207;32.078;34.818;2024-03-25T04:45:00;101010.63;;;22.27;37.62
23619;BME280;18207;32.078;34.818;2024-03-25T04:47:27;101009.00;;;22.26;37.18
23619;BME280;18207;32.078;34.818;2024-03-25T04:49:54;101005.38;;;22.26;37.71
23619;BME280;18207;32.078;34.818;2024-03-25T04:52:22;101011.78;;;22.26;37.40
23619;BME280;18207;32.078;34.818;2024-03-25T04:54:49;101014.94;;;22.25;37.62
23619;BME280;18207;32.078;34.818;2024-03-25T04:57:16;101017.38;;;22.26;37.56
23619;BME280;18207;32.078;34.818;2024-03-25T04:59:45;101022.97;;;22.26;37.92
23619;BME280;18207;32.078;34.818;2024-03-25T05:02:15;101023.34;;;22.25;37.85
23619;BME280;18207;32.078;34.818;2024-03-25T05:04:42;101026.47;;;22.23;37.41
23619;BME280;18207;32.078;34.818;2024-03-25T05:07:09;101031.59;;;22.21;37.30
23619;BME280;18207;32.078;34.818;2024-03-25T05:09:37;101033.91;;;22.19;37.69
23619;BME280;18207;32.078;34.818;2024-03-25T05:12:04;101038.69;;;22.19;37.44
23619;BME280;18207;32.078;34.818;2024-03-25T05:14:31;101039.50;;;22.19;37.40
23619;BME280;18207;32.078;34.818;2024-03-25T05:16:59;101041.16;;;22.20;38.08
23619;BME280;18207;32.078;34.818;2024-03-25T05:19:27;101043.97;;;22.20;37.65
23619;BME280;18207;32.078;34.818;2024-03-25T05:21:54;101053.16;;;22.21;37.73
23619;BME280;18207;32.078;34.818;2024-03-25T05:24:22;101059.09;;;22.19;37.66
23619;BME280;18207;32.078;34.818;2024-03-25T05:26:49;101056.63;;;22.18;37.70
23619;BME280;18207;32.078;34.818;2024-03-25T05:29:16;101061.41;;;22.17;38.05
23619;BME280;18207;32.078;34.818;2024-03-25T05:31:57;101077.06;;;22.18;37.95
23619;BME280;18207;32.078;34.818;2024-03-25T05:34:27;101078.22;;;22.17;38.17
23619;BME280;18207;32.078;34.818;2024-03-25T05:36:55;101080.22;;;22.17;37.72
23619;BME280;18207;32.078;34.818;2024-03-25T05:39:22;101097.81;;;22.17;37.69
23619;BME280;18207;32.078;34.818;2024-03-25T05:41:50;101093.84;;;22.18;38.18
23619;BME280;18207;32.078;34.818;2024-03-25T05:44:17;101111.47;;;22.19;37.69
23619;BME280;18207;32.078;34.818;2024-03-25T05:46:44;101102.75;;;22.20;37.82
23619;BME280;18207;32.078;34.818;2024-03-25T05:49:11;101110.78;;;22.22;37.95
23619;BME280;18207;32.078;34.818;2024-03-25T05:51:40;101106.84;;;22.23;38.04
23619;BME280;18207;32.078;34.818;2024-03-25T05:54:07;101114.88;;;22.24;38.10
23619;BME280;18207;32.078;34.818;2024-03-25T05:56:35;101115.38;;;22.26;38.40
23619;BME280;18207;32.078;34.818;2024-03-25T05:59:02;101121.47;;;22.28;38.29
23619;BME280;18207;32.078;34.818;2024-03-25T06:01:29;101117.50;;;22.29;37.99
23619;BME280;18207;32.078;34.818;2024-03-25T06:03:56;101124.09;;;22.33;37.78
23619;BME280;18207;32.078;34.818;2024-03-25T06:06:23;101131.03;;;22.36;38.13
23619;BME280;18207;32.078;34.818;2024-03-25T06:08:52;101137.56;;;22.40;37.93
23619;BME280;18207;32.078;34.818;2024-03-25T06:11:20;101131.31;;;22.42;38.37
23619;BME280;18207;32.078;34.818;2024-03-25T06:13:47;101136.22;;;22.45;38.06
23619;BME280;18207;32.078;34.818;2024-03-25T06:16:14;101143.13;;;22.48;38.10
23619;BME280;18207;32.078;34.818;2024-03-25T06:18:42;101143.63;;;22.50;38.00
23619;BME280;18207;32.078;34.818;2024-03-25T06:21:09;101144.91;;;22.52;38.26
23619;BME280;18207;32.078;34.818;2024-03-25T06:23:36;101153.81;;;22.54;38.35
23619;BME280;18207;32.078;34.818;2024-03-25T06:26:05;101155.59;;;22.59;38.47
23619;BME280;18207;32.078;34.818;2024-03-25T06:28:32;101152.91;;;22.62;38.36
23619;BME280;18207;32.078;34.818;2024-03-25T06:31:00;101154.69;;;22.67;38.01
23619;BME280;18207;32.078;34.818;2024-03-25T06:33:45;101154.84;;;22.70;38.00
23619;BME280;18207;32.078;34.818;2024-03-25T06:36:31;101163.72;;;22.72;38.15
23619;BME280;18207;32.078;34.818;2024-03-25T06:38:58;101168.31;;;22.77;38.54
23619;BME280;18207;32.078;34.818;2024-03-25T06:41:27;101173.25;;;22.80;38.30
23619;BME280;18207;32.078;34.818;2024-03-25T06:43:54;101179.66;;;22.80;38.13
23619;BME280;18207;32.078;34.818;2024-03-25T06:46:21;101175.34;;;22.83;38.07
23619;BME280;18207;32.078;34.818;2024-03-25T06:48:48;101177.00;;;22.84;38.36
23619;BME280;18207;32.078;34.818;2024-03-25T06:51:16;101181.09;;;22.86;38.37
23619;BME280;18207;32.078;34.818;2024-03-25T06:53:43;101185.22;;;22.89;38.45
23619;BME280;18207;32.078;34.818;2024-03-25T06:56:10;101190.94;;;22.92;38.43
23619;BME280;18207;32.078;34.818;2024-03-25T06:58:39;101187.13;;;22.97;38.43
23619;BME280;18207;32.078;34.818;2024-03-25T07:01:08;101190.88;;;23.01;38.21
23619;BME280;18207;32.078;34.818;2024-03-25T07:03:36;101193.88;;;23.04;38.24
23619;BME280;18207;32.078;34.818;2024-03-25T07:06:03;101200.41;;;23.08;38.60
23619;BME280;18207;32.078;34.818;2024-03-25T07:08:31;101195.78;;;23.12;38.06
23619;BME280;18207;32.078;34.818;2024-03-25T07:10:59;101198.38;;;23.17;38.06
23619;BME280;18207;32.078;34.818;2024-03-25T07:13:26;101196.19;;;23.23;38.37
23619;BME280;18207;32.078;34.818;2024-03-25T07:15:55;101208.50;;;23.30;38.26
23619;BME280;18207;32.078;34.818;2024-03-25T07:18:22;101196.72;;;23.36;38.07
23619;BME280;18207;32.078;34.818;2024-03-25T07:20:49;101201.06;;;23.46;38.34
23619;BME280;18207;32.078;34.818;2024-03-25T07:23:17;101196.91;;;23.52;38.04
23619;BME280;18207;32.078;34.818;2024-03-25T07:25:44;101208.88;;;23.61;38.39
23619;BME280;18207;32.078;34.818;2024-03-25T07:28:12;101210.66;;;23.65;38.25
23619;BME280;18207;32.078;34.818;2024-03-25T07:30:39;101202.00;;;23.70;38.20
23619;BME280;18207;32.078;34.818;2024-03-25T07:33:08;101202.63;;;23.76;38.59
23619;BME280;18207;32.078;34.818;2024-03-25T07:35:35;101203.94;;;23.78;38.33
23619;BME280;18207;32.078;34.818;2024-03-25T07:38:02;101206.16;;;23.85;38.16
23619;BME280;18207;32.078;34.818;2024-03-25T07:40:30;101214.38;;;23.90;38.46
23619;BME280;18207;32.078;34.818;2024-03-25T07:42:57;101214.63;;;23.97;38.55
23619;BME280;18207;32.078;34.818;2024-03-25T07:45:24;101218.03;;;24.02;38.24
23619;BME280;18207;32.078;34.818;2024-03-25T07:47:51;101213.50;;;24.10;38.40
23619;BME280;18207;32.078;34.818;2024-03-25T07:50:20;101216.22;;;24.18;38.40
23619;BME280;18207;32.078;34.818;2024-03-25T07:52:48;101223.72;;;24.26;38.38
23619;BME280;18207;32.078;34.818;2024-03-25T07:55:15;101217.16;;;24.34;38.04
23619;BME280;18207;32.078;34.818;2024-03-25T07:57:42;101217.06;;;24.42;38.09
23619;BME280;18207;32.078;34.818;2024-03-25T08:00:10;101231.00;;;24.51;38.07
23619;BME280;18207;32.078;34.818;2024-03-25T08:02:38;101228.09;;;24.59;38.19
23619;BME280;18207;32.078;34.818;2024-03-25T08:05:06;101224.34;;;24.67;37.99
23619;BME280;18207;32.078;34.818;2024-03-25T08:07:35;101233.47;;;24.76;37.92
23619;BME280;18207;32.078;34.818;2024-03-25T08:10:02;101224.81;;;24.81;38.18
23619;BME280;18207;32.078;34.818;2024-03-25T08:12:30;101237.94;;;24.89;38.01
23619;BME280;18207;32.078;34.818;2024-03-25T08:14:57;101230.50;;;24.97;37.96
23619;BME280;18207;32.078;34.818;2024-03-25T08:17:24;101231.56;;;25.04;38.26
23619;BME280;18207;32.078;34.818;2024-03-25T08:19:51;101225.84;;;25.12;37.94
23619;BME280;18207;32.078;34.818;2024-03-25T08:22:18;101238.16;;;25.20;37.93
23619;BME280;18207;32.078;34.818;2024-03-25T08:24:47;101236.72;;;25.26;37.81
23619;BME280;18207;32.078;34.818;2024-03-25T08:27:15;101233.63;;;25.31;37.65
23619;BME280;18207;32.078;34.818;2024-03-25T08:29:42;101230.59;;;25.36;37.36
23619;BME280;18207;32.078;34.818;2024-03-25T08:32:09;101227.50;;;25.41;37.73
23619;BME280;18207;32.078;34.818;2024-03-25T08:34:36;101220.47;;;25.47;37.48
23619;BME280;18207;32.078;34.818;2024-03-25T08:37:03;101221.84;;;25.53;37.57
23619;BME280;18207;32.078;34.818;2024-03-25T08:39:31;101223.97;;;25.56;37.49
23619;BME280;18207;32.078;34.818;2024-03-25T08:41:59;101228.03;;;25.58;37.47
23619;BME280;18207;32.078;34.818;2024-03-25T08:44:26;101231.31;;;25.60;37.55
23619;BME280;18207;32.078;34.818;2024-03-25T08:46:54;101239.06;;;25.63;37.48
23619;BME280;18207;32.078;34.818;2024-03-25T08:49:21;101235.06;;;25.64;37.70
23619;BME280;18207;32.078;34.818;2024-03-25T08:51:53;101234.34;;;25.67;37.21
23619;BME280;18207;32.078;34.818;2024-03-25T08:54:20;101241.72;;;25.72;37.33
23619;BME280;18207;32.078;34.818;2024-03-25T08:56:47;101237.50;;;25.78;37.35
23619;BME280;18207;32.078;34.818;2024-03-25T08:59:16;101234.78;;;25.81;37.06
23619;BME280;18207;32.078;34.818;2024-03-25T09:01:43;101236.53;;;25.86;37.21
23619;BME280;18207;32.078;34.818;2024-03-25T09:04:10;101237.88;;;25.92;36.97
23619;BME280;18207;32.078;34.818;2024-03-25T09:06:37;101232.00;;;25.97;36.94
23619;BME280;18207;32.078;34.818;2024-03-25T09:09:05;101237.38;;;26.01;36.79
23619;BME280;18207;32.078;34.818;2024-03-25T09:11:50;101241.13;;;26.05;36.49
23619;BME280;18207;32.078;34.818;2024-03-25T09:14:19;101233.56;;;26.09;36.65
23619;BME280;18207;32.078;34.818;2024-03-25T09:16:46;101236.50;;;26.13;36.78
23619;BME280;18207;32.078;34.818;2024-03-25T09:19:14;101234.25;;;26.18;36.27
23619;BME280;18207;32.078;34.818;2024-03-25T09:21:41;101227.50;;;26.23;36.47
23619;BME280;18207;32.078;34.818;2024-03-25T09:24:08;101230.88;;;26.28;36.47
23619;BME280;18207;32.078;34.818;2024-03-25T09:26:35;101224.16;;;26.33;36.43
23619;BME280;18207;32.078;34.818;2024-03-25T09:29:03;101225.88;;;26.37;36.35
23619;BME280;18207;32.078;34.818;2024-03-25T09:31:32;101227.66;;;26.42;36.49
23619;BME280;18207;32.078;34.818;2024-03-25T09:33:59;101227.72;;;26.45;36.47
23619;BME280;18207;32.078;34.818;2024-03-25T09:36:26;101226.97;;;26.48;36.48
23619;BME280;18207;32.078;34.818;2024-03-25T09:38:53;101231.56;;;26.53;36.54
23619;BME280;18207;32.078;34.818;2024-03-25T09:41:20;101230.81;;;26.56;36.42
23619;BME280;18207;32.078;34.818;2024-03-25T09:43:52;101224.06;;;26.60;36.44
23619;BME280;18207;32.078;34.818;2024-03-25T09:46:22;101226.97;;;26.64;36.48
23619;BME280;18207;32.078;34.818;2024-03-25T09:48:53;101231.91;;;26.67;36.25
23619;BME280;18207;32.078;34.818;2024-03-25T09:51:21;101234.34;;;26.68;36.32
23619;BME280;18207;32.078;34.818;2024-03-25T09:53:48;101238.06;;;26.72;36.61
23619;BME280;18207;32.078;34.818;2024-03-25T09:56:16;101219.97;;;26.73;36.18
23619;BME280;18207;32.078;34.818;2024-03-25T09:58:44;101230.53;;;26.76;36.03
23619;BME280;18207;32.078;34.818;2024-03-25T10:01:12;101224.50;;;26.78;36.19
23619;BME280;18207;32.078;34.818;2024-03-25T10:03:39;101220.91;;;26.77;36.23
23619;BME280;18207;32.078;34.818;2024-03-25T10:06:08;101216.84;;;26.78;36.14
23619;BME280;18207;32.078;34.818;2024-03-25T10:08:35;101213.69;;;26.80;36.01
23619;BME280;18207;32.078;34.818;2024-03-25T10:11:03;101202.88;;;26.82;36.16
23619;BME280;18207;32.078;34.818;2024-03-25T10:13:30;101205.31;;;26.83;36.29
23619;BME280;18207;32.078;34.818;2024-03-25T10:15:57;101209.03;;;26.87;36.14
23619;BME280;18207;32.078;34.818;2024-03-25T10:18:25;101216.28;;;26.88;35.96
23619;BME280;18207;32.078;34.818;2024-03-25T10:20:52;101207.84;;;26.88;36.08
23619;BME280;18207;32.078;34.818;2024-03-25T10:23:23;101205.13;;;26.91;35.77
23619;BME280;18207;32.078;34.818;2024-03-25T10:25:53;101213.22;;;26.93;35.67
23619;BME280;18207;32.078;34.818;2024-03-25T10:28:20;101209.22;;;26.94;35.74
23619;BME280;18207;32.078;34.818;2024-03-25T10:30:47;101212.47;;;26.96;35.92
23619;BME280;18207;32.078;34.818;2024-03-25T10:33:15;101211.28;;;26.97;35.74
23619;BME280;18207;32.078;34.818;2024-03-25T10:35:45;101221.81;;;27.00;35.70
23619;BME280;18207;32.078;34.818;2024-03-25T10:38:17;101222.66;;;27.00;35.89
23619;BME280;18207;32.078;34.818;2024-03-25T10:40:48;101228.41;;;27.04;35.79
23619;BME280;18207;32.078;34.818;2024-03-25T10:43:18;101230.47;;;27.07;35.76
23619;BME280;18207;32.078;34.818;2024-03-25T10:45:49;101241.03;;;27.10;35.54
23619;BME280;18207;32.078;34.818;2024-03-25T10:48:24;101247.13;;;27.12;35.85
23619;BME280;18207;32.078;34.818;2024-03-25T10:50:56;101240.31;;;27.13;35.80
23619;BME280;18207;32.078;34.818;2024-03-25T10:53:27;101251.59;;;27.13;35.77
23619;BME280;18207;32.078;34.818;2024-03-25T10:55:57;101257.25;;;27.13;35.65
23619;BME280;18207;32.078;34.818;2024-03-25T10:58:27;101245.97;;;27.13;35.77
23619;BME280;18207;32.078;34.818;2024-03-25T11:00:55;101259.22;;;27.12;36.01
23619;BME280;18207;32.078;34.818;2024-03-25T11:03:23;101244.78;;;27.14;35.81
23619;BME280;18207;32.078;34.818;2024-03-25T11:05:50;101265.72;;;27.13;35.80
23619;BME280;18207;32.078;34.818;2024-03-25T11:08:18;101255.69;;;27.15;35.95
23619;BME280;18207;32.078;34.818;2024-03-25T11:10:47;101257.69;;;27.15;35.82
23619;BME280;18207;32.078;34.818;2024-03-25T11:13:18;101259.34;;;27.16;35.65
23619;BME280;18207;32.078;34.818;2024-03-25T11:15:48;101262.97;;;27.16;35.66
23619;BME280;18207;32.078;34.818;2024-03-25T11:18:16;101257.31;;;27.16;35.49
23619;BME280;18207;32.078;34.818;2024-03-25T11:20:44;101265.41;;;27.18;35.64
23619;BME280;18207;32.078;34.818;2024-03-25T11:23:12;101259.03;;;27.21;35.87
23619;BME280;18207;32.078;34.818;2024-03-25T11:25:41;101260.31;;;27.23;35.42
23619;BME280;18207;32.078;34.818;2024-03-25T11:28:09;101269.22;;;27.25;35.74
23619;BME280;18207;32.078;34.818;2024-03-25T11:30:39;101256.75;;;27.26;35.50
23619;BME280;18207;32.078;34.818;2024-03-25T11:33:07;101243.81;;;27.25;35.81
23619;BME280;18207;32.078;34.818;2024-03-25T11:35:38;101247.81;;;27.24;35.58
23619;BME280;18207;32.078;34.818;2024-03-25T11:38:05;101249.38;;;27.22;35.41
23619;BME280;18207;32.078;34.818;2024-03-25T11:40:32;101250.56;;;27.21;35.46
23619;BME280;18207;32.078;34.818;2024-03-25T11:43:00;101250.19;;;27.22;35.87
23619;BME280;18207;32.078;34.818;2024-03-25T11:45:28;101259.13;;;27.24;35.64
23619;BME280;18207;32.078;34.818;2024-03-25T11:47:58;101259.56;;;27.26;35.55
23619;BME280;18207;32.078;34.818;2024-03-25T11:50:25;101249.94;;;27.27;35.53
23619;BME280;18207;32.078;34.818;2024-03-25T11:52:52;101253.53;;;27.28;35.34
23619;BME280;18207;32.078;34.818;2024-03-25T11:55:19;101258.00;;;27.29;35.50
23619;BME280;18207;32.078;34.818;2024-03-25T11:57:54;101266.47;;;27.29;35.51
23619;BME280;18207;32.078;34.818;2024-03-25T12:00:21;101250.72;;;27.28;35.60
23619;BME280;18207;32.078;34.818;2024-03-25T12:02:49;101254.38;;;27.28;35.43
23619;BME280;18207;32.078;34.818;2024-03-25T12:05:18;101258.00;;;27.29;35.39
23619;BME280;18207;32.078;34.818;2024-03-25T12:07:45;101253.53;;;27.28;35.39
23619;BME280;18207;32.078;34.818;2024-03-25T12:10:12;101246.25;;;27.27;35.29
23619;BME280;18207;32.078;34.818;2024-03-25T12:12:58;101261.59;;;27.26;35.40
23619;BME280;18207;32.078;34.818;2024-03-25T12:15:25;101260.75;;;27.25;35.35
23619;BME280;18207;32.078;34.818;2024-03-25T12:17:53;101255.03;;;27.22;35.33
23619;BME280;18207;32.078;34.818;2024-03-25T12:20:22;101249.66;;;27.17;35.25
23619;BME280;18207;32.078;34.818;2024-03-25T12:22:50;101244.78;;;27.14;35.16
23619;BME280;18207;32.078;34.818;2024-03-25T12:25:20;101246.75;;;27.13;35.52
23619;BME280;18207;32.078;34.818;2024-03-25T12:27:47;101241.50;;;27.12;35.45
23619;BME280;18207;32.078;34.818;2024-03-25T12:30:14;101253.16;;;27.10;35.44
23619;BME280;18207;32.078;34.818;2024-03-25T12:32:43;101240.69;;;27.11;35.52
23619;BME280;18207;32.078;34.818;2024-03-25T12:35:12;101243.13;;;27.13;35.65
23619;BME280;18207;32.078;34.818;2024-03-25T12:37:43;101239.94;;;27.14;35.39
23619;BME280;18207;32.078;34.818;2024-03-25T12:40:13;101238.75;;;27.15;35.42
23619;BME280;18207;32.078;34.818;2024-03-25T12:42:41;101233.94;;;27.16;35.45
23619;BME280;18207;32.078;34.818;2024-03-25T12:45:09;101239.13;;;27.14;35.39